Time;durP1;ratioP1;P1;durP2;ratioP2;P2;SDS_P1;SDS_P2;PMS_P1;PMS_P2;Temp;Humidity;BMP_temperature;BMP_pressure;BME280_temperature;BME280_humidity;BME280_pressure;Samples;Min_cycle;Max_cycle;Signal;HPM_P1;HPM_P2
2021/05/09 00:02:10;;;;;;;13.38;5.28;;;12.10;99.90;;;;;;4994936;28;20209;-71
2021/05/09 00:04:37;;;;;;;7.30;6.18;;;12.10;99.90;;;;;;4992835;28;20257;-70
2021/05/09 00:07:05;;;;;;;4.97;4.57;;;12.20;99.90;;;;;;4994396;28;20223;-70
2021/05/09 00:09:32;;;;;;;5.60;5.10;;;12.20;99.90;;;;;;4990451;28;20237;-72
2021/05/09 00:12:00;;;;;;;4.95;4.50;;;12.30;99.90;;;;;;4991961;28;20203;-70
2021/05/09 00:14:28;;;;;;;6.40;4.80;;;12.30;99.90;;;;;;4992279;28;20212;-70
2021/05/09 00:16:54;;;;;;;6.40;4.45;;;12.40;99.90;;;;;;4983721;28;20286;-70
2021/05/09 00:19:21;;;;;;;6.68;5.00;;;12.50;99.90;;;;;;4993041;28;20211;-70
2021/05/09 00:21:48;;;;;;;8.18;4.90;;;12.40;99.90;;;;;;4998697;28;20207;-70
2021/05/09 00:24:15;;;;;;;4.78;4.32;;;12.40;99.90;;;;;;4997465;28;20289;-70
2021/05/09 00:26:41;;;;;;;7.55;4.70;;;12.50;99.90;;;;;;5000131;28;20234;-69
2021/05/09 00:29:09;;;;;;;6.60;4.45;;;12.60;99.90;;;;;;4995365;28;20299;-70
2021/05/09 00:31:36;;;;;;;5.10;4.55;;;12.60;99.90;;;;;;4997077;28;20216;-70
2021/05/09 00:34:03;;;;;;;8.43;4.75;;;12.60;99.90;;;;;;4996148;28;20675;-71
2021/05/09 00:36:29;;;;;;;5.10;4.40;;;12.70;99.90;;;;;;4996147;28;20223;-70
2021/05/09 00:38:56;;;;;;;5.70;5.15;;;12.70;99.90;;;;;;4995964;28;20311;-71
2021/05/09 00:41:23;;;;;;;6.20;4.30;;;12.70;99.90;;;;;;4996098;28;20662;-71
2021/05/09 00:43:49;;;;;;;5.15;4.63;;;12.80;99.90;;;;;;4996346;28;20610;-69
2021/05/09 00:46:17;;;;;;;6.40;4.72;;;12.80;99.90;;;;;;4988060;28;20585;-71
2021/05/09 00:48:44;;;;;;;6.90;4.13;;;12.90;99.90;;;;;;4995696;28;20216;-69
2021/05/09 00:51:11;;;;;;;4.78;4.22;;;12.80;99.90;;;;;;4988352;28;20230;-69
2021/05/09 00:53:42;;;;;;;5.90;5.35;;;12.80;99.90;;;;;;4996435;28;20643;-69
2021/05/09 00:56:12;;;;;;;6.18;4.30;;;12.70;99.90;;;;;;4988282;28;20235;-70
2021/05/09 00:58:42;;;;;;;7.07;4.95;;;12.70;99.90;;;;;;4986631;28;20227;-70
2021/05/09 01:01:09;;;;;;;5.88;4.53;;;12.80;99.90;;;;;;4996644;28;20204;-70
2021/05/09 01:03:39;;;;;;;7.10;5.10;;;12.70;99.90;;;;;;4984882;28;20686;-71
2021/05/09 01:06:07;;;;;;;5.07;4.57;;;12.70;99.90;;;;;;4995282;28;20240;-70
2021/05/09 01:08:35;;;;;;;5.57;4.35;;;12.70;99.90;;;;;;4994432;28;20670;-70
2021/05/09 01:11:03;;;;;;;4.10;3.70;;;12.80;99.90;;;;;;4998686;28;20609;-70
2021/05/09 01:13:30;;;;;;;4.82;3.97;;;12.80;99.90;;;;;;4995040;28;20275;-70
2021/05/09 01:15:57;;;;;;;5.97;3.92;;;12.80;99.90;;;;;;4998664;28;20693;-69
2021/05/09 01:18:46;;;;;;;5.32;4.82;;;12.80;99.90;;;;;;4986069;28;20703;-69
2021/05/09 01:21:14;;;;;;;5.80;4.95;;;12.80;99.90;;;;;;4990331;28;20213;-70
2021/05/09 01:23:40;;;;;;;5.60;4.47;;;12.80;99.90;;;;;;5000035;28;20634;-69
2021/05/09 01:26:07;;;;;;;4.53;3.88;;;12.80;99.90;;;;;;4997130;28;20698;-69
2021/05/09 01:28:34;;;;;;;4.45;4.05;;;12.90;99.90;;;;;;4994035;28;20208;-68
2021/05/09 01:31:00;;;;;;;5.55;4.18;;;12.90;99.90;;;;;;5000442;28;20262;-69
2021/05/09 01:33:27;;;;;;;5.15;4.40;;;13.00;99.90;;;;;;4996633;28;20279;-71
2021/05/09 01:35:54;;;;;;;5.90;4.05;;;13.00;99.90;;;;;;4996447;28;20238;-70
2021/05/09 01:38:22;;;;;;;5.45;3.63;;;13.10;99.90;;;;;;4991472;28;20227;-69
2021/05/09 01:40:49;;;;;;;4.55;3.88;;;13.10;99.90;;;;;;4996968;28;20322;-70
2021/05/09 01:43:15;;;;;;;3.30;3.00;;;13.10;99.90;;;;;;4997703;28;20690;-69
2021/05/09 01:45:42;;;;;;;5.72;4.28;;;13.10;99.90;;;;;;4995479;28;20232;-70
2021/05/09 01:48:09;;;;;;;4.15;3.75;;;13.10;99.90;;;;;;4987749;28;20712;-69
2021/05/09 01:50:38;;;;;;;3.75;3.45;;;13.10;99.90;;;;;;4994396;28;20215;-70
2021/05/09 01:53:05;;;;;;;6.03;3.53;;;13.20;99.90;;;;;;4993439;28;20209;-70
2021/05/09 01:55:33;;;;;;;5.45;3.95;;;13.10;99.90;;;;;;4993348;28;20330;-69
2021/05/09 01:58:00;;;;;;;3.92;3.53;;;13.20;99.90;;;;;;4995015;28;20290;-70
2021/05/09 02:00:27;;;;;;;5.00;3.90;;;13.10;99.90;;;;;;4998246;28;20229;-69
2021/05/09 02:02:54;;;;;;;4.32;3.90;;;13.00;99.90;;;;;;4996187;28;20219;-68
2021/05/09 02:05:20;;;;;;;6.25;4.28;;;13.10;99.90;;;;;;4986224;28;20750;-69
2021/05/09 02:07:47;;;;;;;4.53;4.13;;;13.10;99.90;;;;;;4995391;28;20207;-69
2021/05/09 02:10:15;;;;;;;4.57;4.07;;;13.10;99.90;;;;;;4993667;28;20214;-69
2021/05/09 02:12:43;;;;;;;4.18;3.58;;;13.10;99.90;;;;;;4991887;28;20616;-69
2021/05/09 02:15:11;;;;;;;5.13;4.22;;;13.10;99.90;;;;;;4994321;28;20215;-70
2021/05/09 02:17:37;;;;;;;5.30;3.75;;;13.10;99.90;;;;;;4999778;28;20258;-70
2021/05/09 02:20:06;;;;;;;4.80;3.72;;;13.00;99.90;;;;;;4992830;28;20245;-69
2021/05/09 02:22:33;;;;;;;4.68;4.28;;;13.00;99.90;;;;;;4994453;28;20219;-69
2021/05/09 02:27:27;;;;;;;4.43;3.65;;;12.90;99.90;;;;;;4990870;28;20220;-70
2021/05/09 02:29:55;;;;;;;4.45;3.72;;;12.90;99.90;;;;;;5004751;28;20203;-69
2021/05/09 02:32:23;;;;;;;5.32;4.30;;;12.90;99.90;;;;;;4994793;28;20211;-70
2021/05/09 02:34:49;;;;;;;5.28;3.80;;;12.80;99.90;;;;;;5013626;28;20206;-70
2021/05/09 02:37:17;;;;;;;7.32;4.07;;;12.80;99.90;;;;;;5033447;28;20709;-70
2021/05/09 02:39:46;;;;;;;4.40;4.00;;;12.70;99.90;;;;;;5034232;28;20251;-70
2021/05/09 02:42:13;;;;;;;4.72;4.20;;;12.70;99.90;;;;;;5022021;28;20652;-68
2021/05/09 02:44:40;;;;;;;7.18;4.15;;;12.60;99.90;;;;;;5027519;28;20241;-69
2021/05/09 02:47:08;;;;;;;4.32;3.83;;;12.60;99.90;;;;;;5030910;28;20218;-69
2021/05/09 02:49:34;;;;;;;4.10;3.80;;;12.60;99.90;;;;;;5022390;28;20203;-69
2021/05/09 02:52:01;;;;;;;4.78;3.75;;;12.50;99.90;;;;;;5035297;28;20290;-69
2021/05/09 02:54:28;;;;;;;5.63;4.00;;;12.50;99.90;;;;;;5027993;28;20235;-69
2021/05/09 02:56:56;;;;;;;5.57;4.05;;;12.40;99.90;;;;;;5032848;28;20691;-70
2021/05/09 02:59:23;;;;;;;3.70;3.38;;;12.40;99.90;;;;;;5023347;28;20292;-69
2021/05/09 03:01:49;;;;;;;4.05;3.65;;;12.30;99.90;;;;;;5033418;28;20563;-68
2021/05/09 03:04:17;;;;;;;3.90;3.50;;;12.30;99.90;;;;;;5016936;28;20210;-70
2021/05/09 03:06:44;;;;;;;4.45;3.90;;;12.20;99.90;;;;;;5033148;28;20220;-70
2021/05/09 03:09:10;;;;;;;4.40;3.65;;;12.20;99.90;;;;;;5030121;28;20201;-68
2021/05/09 03:11:37;;;;;;;4.22;3.40;;;12.20;99.90;;;;;;5024431;28;20203;-68
2021/05/09 03:14:06;;;;;;;4.70;4.05;;;12.10;99.90;;;;;;5028075;28;20208;-69
2021/05/09 03:16:32;;;;;;;4.43;4.03;;;12.10;99.90;;;;;;5030900;28;20708;-68
2021/05/09 03:18:59;;;;;;;4.55;3.60;;;12.10;99.90;;;;;;5024745;28;20262;-70
2021/05/09 03:21:27;;;;;;;4.13;3.67;;;12.00;99.90;;;;;;5035018;28;20235;-69
2021/05/09 03:23:53;;;;;;;7.68;3.92;;;12.00;99.90;;;;;;5032929;28;20634;-70
2021/05/09 03:26:20;;;;;;;5.25;3.78;;;12.00;99.90;;;;;;5029385;28;20692;-69
2021/05/09 03:28:47;;;;;;;5.03;3.65;;;12.00;99.90;;;;;;5024347;28;20204;-68
2021/05/09 03:31:14;;;;;;;6.13;4.20;;;12.00;99.90;;;;;;5025407;28;20568;-70
2021/05/09 03:33:40;;;;;;;4.80;4.40;;;11.90;99.90;;;;;;5033578;28;20200;-69
2021/05/09 03:36:07;;;;;;;5.43;4.63;;;11.80;99.90;;;;;;5032187;28;20311;-70
2021/05/09 03:38:35;;;;;;;4.05;3.75;;;11.90;99.90;;;;;;5030617;28;20267;-68
2021/05/09 03:41:01;;;;;;;4.78;4.03;;;11.90;99.90;;;;;;5032555;28;20226;-69
2021/05/09 03:43:29;;;;;;;5.72;4.20;;;11.90;99.90;;;;;;5029675;28;20214;-68
2021/05/09 03:45:56;;;;;;;7.18;3.33;;;12.00;99.90;;;;;;5020334;28;20221;-70
2021/05/09 03:48:23;;;;;;;8.73;4.30;;;12.00;99.90;;;;;;5039418;28;20208;-69
2021/05/09 03:50:49;;;;;;;5.80;3.90;;;12.00;99.90;;;;;;5033899;28;20198;-69
2021/05/09 03:53:16;;;;;;;5.20;4.50;;;12.10;99.90;;;;;;5027426;28;20561;-70
2021/05/09 03:55:44;;;;;;;3.70;3.20;;;12.00;99.90;;;;;;5027253;28;20599;-68
2021/05/09 03:58:10;;;;;;;6.05;4.60;;;12.10;99.90;;;;;;5028442;28;20209;-68
2021/05/09 04:00:37;;;;;;;3.92;3.53;;;12.10;99.90;;;;;;5032182;28;20221;-69
2021/05/09 04:03:17;;;;;;;4.40;4.00;;;12.00;99.90;;;;;;5033483;28;20197;-69
2021/05/09 04:05:47;;;;;;;5.47;4.03;;;12.00;99.90;;;;;;5030694;28;20217;-69
2021/05/09 04:08:14;;;;;;;4.15;3.70;;;12.00;99.90;;;;;;5031779;28;20206;-69
2021/05/09 04:10:40;;;;;;;4.60;4.00;;;12.00;99.90;;;;;;5037981;28;20357;-69
2021/05/09 04:13:08;;;;;;;8.65;4.82;;;12.00;99.90;;;;;;5020225;28;20208;-69
2021/05/09 04:15:35;;;;;;;4.10;3.72;;;12.10;99.90;;;;;;5031825;28;20223;-68
2021/05/09 04:18:01;;;;;;;4.05;3.65;;;12.10;99.90;;;;;;5038933;28;20204;-69
2021/05/09 04:20:28;;;;;;;4.60;3.67;;;12.20;99.90;;;;;;5030766;28;20291;-68
2021/05/09 04:23:07;;;;;;;3.42;3.13;;;12.20;99.90;;;;;;5026922;28;20205;-68
2021/05/09 04:25:34;;;;;;;4.20;3.80;;;12.10;99.90;;;;;;5025886;28;20255;-69
2021/05/09 04:28:01;;;;;;;4.20;3.72;;;12.20;99.90;;;;;;5028308;28;20209;-69
2021/05/09 04:30:28;;;;;;;6.25;4.40;;;12.30;99.90;;;;;;5032987;28;20663;-70
2021/05/09 04:32:59;;;;;;;3.95;3.65;;;12.30;99.90;;;;;;5029546;28;20263;-68
2021/05/09 04:35:26;;;;;;;4.05;3.28;;;12.50;99.90;;;;;;5029839;28;20222;-68
2021/05/09 04:37:53;;;;;;;4.80;3.85;;;12.60;99.90;;;;;;5027537;28;20212;-69
2021/05/09 04:40:20;;;;;;;4.55;3.60;;;13.20;99.90;;;;;;5029847;28;20224;-69
2021/05/09 04:42:47;;;;;;;3.90;3.50;;;14.00;99.90;;;;;;5031210;28;20201;-69
2021/05/09 04:45:14;;;;;;;3.60;2.70;;;15.00;99.90;;;;;;5032350;28;20220;-69
2021/05/09 04:47:43;;;;;;;3.42;2.80;;;16.00;99.90;;;;;;5040264;28;20200;-70
2021/05/09 04:50:11;;;;;;;7.20;3.30;;;16.60;99.90;;;;;;5030989;28;20211;-69
2021/05/09 04:52:38;;;;;;;2.40;2.20;;;16.70;99.90;;;;;;5034207;28;20210;-70
2021/05/09 04:55:06;;;;;;;4.13;2.87;;;17.50;99.90;;;;;;5037796;28;20207;-69
2021/05/09 04:57:35;;;;;;;3.27;2.50;;;18.20;99.60;;;;;;5027843;28;20529;-70
2021/05/09 05:00:02;;;;;;;3.70;2.80;;;18.70;97.40;;;;;;5023635;28;20510;-71
2021/05/09 05:02:29;;;;;;;3.30;2.50;;;19.90;96.10;;;;;;5031745;28;20814;-70
2021/05/09 05:04:56;;;;;;;2.50;2.10;;;20.10;94.00;;;;;;5031232;28;20458;-69
2021/05/09 05:07:24;;;;;;;3.40;2.70;;;20.40;93.30;;;;;;5030540;28;20451;-70
2021/05/09 05:09:51;;;;;;;4.13;2.40;;;20.30;93.10;;;;;;5035087;28;20447;-70
2021/05/09 05:12:18;;;;;;;5.83;3.70;;;21.10;92.00;;;;;;5035646;28;20443;-69
2021/05/09 05:14:46;;;;;;;3.30;2.80;;;21.50;90.50;;;;;;5029223;28;20868;-71
2021/05/09 05:17:13;;;;;;;3.63;2.60;;;21.80;89.80;;;;;;5023535;28;20564;-69
2021/05/09 05:19:40;;;;;;;3.77;2.03;;;22.00;89.10;;;;;;5029632;28;20573;-70
2021/05/09 05:22:07;;;;;;;3.07;2.77;;;22.40;87.00;;;;;;5027583;28;20925;-70
2021/05/09 05:24:34;;;;;;;4.53;2.40;;;22.40;87.60;;;;;;5040546;28;20451;-71
2021/05/09 05:27:01;;;;;;;4.90;3.00;;;22.50;85.90;;;;;;5033566;28;20478;-70
2021/05/09 05:29:27;;;;;;;3.60;2.63;;;22.90;85.00;;;;;;5029500;28;20440;-70
2021/05/09 05:31:54;;;;;;;3.50;2.73;;;23.20;84.20;;;;;;5022105;28;20478;-70
2021/05/09 05:34:21;;;;;;;2.83;2.03;;;23.40;83.00;;;;;;5032260;28;20443;-71
2021/05/09 05:36:47;;;;;;;3.00;2.80;;;24.40;82.20;;;;;;5030031;28;20490;-71
2021/05/09 05:39:15;;;;;;;3.13;2.57;;;24.80;79.40;;;;;;5029535;28;20509;-71
2021/05/09 05:41:42;;;;;;;2.93;2.40;;;24.20;79.30;;;;;;5027899;28;20983;-70
2021/05/09 05:44:09;;;;;;;3.13;2.17;;;24.80;78.90;;;;;;5028615;28;20451;-69
2021/05/09 05:46:36;;;;;;;2.63;2.10;;;24.80;77.60;;;;;;5028446;28;20474;-70
2021/05/09 05:49:02;;;;;;;3.97;2.33;;;25.20;77.30;;;;;;5026608;28;20949;-70
2021/05/09 05:51:29;;;;;;;3.10;2.40;;;25.60;76.10;;;;;;5035459;28;20941;-69
2021/05/09 05:53:57;;;;;;;3.73;2.70;;;25.10;75.80;;;;;;5028746;28;20452;-69
2021/05/09 05:56:25;;;;;;;2.23;1.90;;;24.90;75.20;;;;;;5036753;28;20474;-71
2021/05/09 05:58:52;;;;;;;2.70;2.10;;;25.00;76.40;;;;;;5033873;28;20442;-70
2021/05/09 06:01:19;;;;;;;5.00;2.60;;;25.40;75.80;;;;;;5033819;28;20885;-71
2021/05/09 06:03:46;;;;;;;2.90;2.60;;;25.50;74.40;;;;;;5029633;28;20443;-71
2021/05/09 06:06:12;;;;;;;3.50;2.47;;;25.30;75.70;;;;;;5034150;28;20472;-71
2021/05/09 06:08:40;;;;;;;2.83;2.37;;;25.60;75.50;;;;;;5031833;28;20447;-70
2021/05/09 06:11:07;;;;;;;2.57;2.37;;;26.10;74.50;;;;;;5042126;28;20522;-70
2021/05/09 06:13:34;;;;;;;1.70;1.60;;;26.50;73.00;;;;;;5034024;28;20812;-70
2021/05/09 06:16:01;;;;;;;7.20;2.37;;;26.50;71.80;;;;;;5033830;28;20462;-70
2021/05/09 06:18:28;;;;;;;3.13;2.07;;;26.70;72.30;;;;;;5032281;28;20443;-69
2021/05/09 06:20:54;;;;;;;3.40;2.10;;;26.60;70.40;;;;;;5034283;28;20493;-70
2021/05/09 06:23:24;;;;;;;4.33;2.00;;;26.60;71.90;;;;;;5022500;28;20451;-70
2021/05/09 06:25:51;;;;;;;2.10;1.90;;;27.40;70.80;;;;;;5033778;28;20491;-69
2021/05/09 06:28:18;;;;;;;4.23;2.07;;;27.10;70.70;;;;;;5032965;28;20443;-70
2021/05/09 06:30:47;;;;;;;5.20;2.70;;;27.50;69.30;;;;;;5033559;28;20463;-70
2021/05/09 06:33:13;;;;;;;3.30;2.60;;;27.60;69.50;;;;;;5028714;28;20474;-69
2021/05/09 06:35:40;;;;;;;3.30;1.90;;;27.70;69.90;;;;;;5028588;28;20831;-69
2021/05/09 06:38:07;;;;;;;3.50;2.53;;;28.00;68.00;;;;;;5033067;28;20450;-71
2021/05/09 06:40:34;;;;;;;2.40;2.20;;;27.10;69.20;;;;;;5027644;28;20495;-71
2021/05/09 06:43:02;;;;;;;3.27;1.87;;;27.50;69.90;;;;;;5032025;28;20446;-71
2021/05/09 06:45:32;;;;;;;2.37;2.03;;;28.40;67.70;;;;;;5033530;28;20478;-71
2021/05/09 06:48:02;;;;;;;2.40;2.20;;;28.70;67.20;;;;;;5032928;28;20451;-68
2021/05/09 06:50:30;;;;;;;5.23;2.40;;;29.20;66.00;;;;;;5033201;28;20546;-70
2021/05/09 06:52:57;;;;;;;3.00;2.03;;;28.70;66.10;;;;;;5027057;28;20452;-70
2021/05/09 06:55:25;;;;;;;5.63;1.93;;;28.60;65.30;;;;;;5027600;28;20475;-70
2021/05/09 06:57:52;;;;;;;3.07;1.80;;;29.10;65.80;;;;;;5029487;28;20447;-70
2021/05/09 07:00:21;;;;;;;3.00;2.00;;;29.30;64.40;;;;;;5033355;28;20482;-70
2021/05/09 07:02:47;;;;;;;2.73;2.10;;;28.70;65.00;;;;;;5029741;28;20452;-70
2021/05/09 07:05:15;;;;;;;2.40;2.00;;;28.80;65.90;;;;;;5030644;28;20888;-70
2021/05/09 07:07:50;;;;;;;2.10;1.90;;;29.10;65.40;;;;;;5045910;28;20473;-70
2021/05/09 07:10:18;;;;;;;3.30;2.00;;;29.30;64.60;;;;;;5033124;28;20442;-71
2021/05/09 07:12:45;;;;;;;2.67;2.20;;;29.50;65.00;;;;;;5023178;28;20451;-70
2021/05/09 07:15:16;;;;;;;3.30;2.43;;;28.80;64.30;;;;;;5031924;28;20481;-70
2021/05/09 07:17:54;;;;;;;2.60;2.30;;;28.40;65.40;;;;;;5030359;28;20462;-71
2021/05/09 07:20:22;;;;;;;3.67;2.23;;;28.60;65.20;;;;;;5015376;28;20486;-70
2021/05/09 07:22:53;;;;;;;4.67;2.10;;;28.50;65.30;;;;;;5031980;28;20451;-70
2021/05/09 07:25:20;;;;;;;3.30;2.07;;;28.40;66.40;;;;;;5032137;28;20988;-70
2021/05/09 07:27:46;;;;;;;2.40;1.97;;;29.40;64.90;;;;;;5032777;28;20451;-71
2021/05/09 07:30:16;;;;;;;2.17;1.80;;;29.50;64.70;;;;;;5032293;28;20453;-73
2021/05/09 07:32:42;;;;;;;2.47;1.90;;;29.20;63.30;;;;;;5021811;28;20451;-72
2021/05/09 07:35:10;;;;;;;3.93;1.60;;;29.90;63.40;;;;;;5024712;28;21003;-72
2021/05/09 07:37:38;;;;;;;2.83;1.97;;;30.00;62.90;;;;;;5020794;28;20458;-72
2021/05/09 07:40:05;;;;;;;4.83;2.80;;;30.30;63.00;;;;;;5025367;28;20542;-72
2021/05/09 07:42:32;;;;;;;3.57;2.30;;;29.80;63.40;;;;;;5022086;28;20444;-70
2021/05/09 07:44:59;;;;;;;4.00;1.87;;;30.00;64.30;;;;;;5032290;28;20462;-71
2021/05/09 07:47:26;;;;;;;2.63;2.20;;;30.50;63.50;;;;;;5032313;28;20948;-71
2021/05/09 07:49:53;;;;;;;3.10;2.40;;;30.90;61.80;;;;;;5031602;28;20452;-69
2021/05/09 07:52:20;;;;;;;2.43;2.00;;;30.00;62.30;;;;;;5020831;28;20518;-71
2021/05/09 07:54:47;;;;;;;3.27;2.03;;;30.60;63.60;;;;;;5019930;28;20451;-72
2021/05/09 07:57:14;;;;;;;4.30;2.30;;;30.90;61.80;;;;;;5028372;28;20471;-70
2021/05/09 07:59:41;;;;;;;3.13;1.87;;;31.30;60.80;;;;;;5022777;28;20484;-69
2021/05/09 08:02:10;;;;;;;2.50;1.93;;;30.80;61.40;;;;;;5032176;28;20451;-70
2021/05/09 08:04:36;;;;;;;8.03;2.80;;;31.10;61.30;;;;;;5026090;28;20443;-70
2021/05/09 08:07:03;;;;;;;3.57;2.43;;;31.60;61.30;;;;;;5035909;28;20466;-70
2021/05/09 08:09:30;;;;;;;3.80;2.43;;;31.70;59.00;;;;;;5031982;28;20812;-70
2021/05/09 08:11:58;;;;;;;3.70;2.50;;;31.30;60.30;;;;;;5032739;28;20435;-70
2021/05/09 08:14:25;;;;;;;2.20;1.70;;;30.90;60.40;;;;;;5036930;28;20443;-69
2021/05/09 08:16:53;;;;;;;2.57;2.00;;;30.80;61.00;;;;;;5021929;28;20462;-70
2021/05/09 08:19:19;;;;;;;4.30;2.07;;;31.20;60.80;;;;;;5028633;28;20454;-69
2021/05/09 08:21:48;;;;;;;4.27;2.37;;;31.60;61.10;;;;;;5028922;28;20449;-69
2021/05/09 08:24:15;;;;;;;2.80;1.83;;;32.20;60.00;;;;;;5036282;28;20527;-70
2021/05/09 08:26:41;;;;;;;3.30;1.93;;;33.00;58.30;;;;;;5032391;28;20489;-69
2021/05/09 08:29:09;;;;;;;3.00;2.07;;;33.00;57.80;;;;;;5027710;28;20447;-69
2021/05/09 08:31:36;;;;;;;3.30;2.10;;;32.50;56.80;;;;;;5036893;28;20447;-70
2021/05/09 08:34:02;;;;;;;3.97;2.13;;;32.60;57.20;;;;;;5032575;28;20505;-69
2021/05/09 08:36:30;;;;;;;2.03;1.63;;;32.20;57.80;;;;;;5023991;28;20471;-70
2021/05/09 08:38:57;;;;;;;2.43;2.20;;;32.60;57.30;;;;;;5030660;28;20823;-70
2021/05/09 08:41:26;;;;;;;7.30;2.23;;;32.80;57.10;;;;;;5032196;28;20471;-70
2021/05/09 08:43:52;;;;;;;2.93;1.90;;;33.20;56.70;;;;;;5031473;28;20451;-69
2021/05/09 08:46:21;;;;;;;2.63;2.27;;;32.80;57.40;;;;;;5038721;28;20463;-70
2021/05/09 08:48:51;;;;;;;3.03;2.10;;;31.50;58.50;;;;;;5021868;28;20497;-70
2021/05/09 08:51:18;;;;;;;7.00;3.20;;;32.30;58.40;;;;;;5034841;28;20450;-70
2021/05/09 08:53:48;;;;;;;4.43;2.50;;;30.80;58.10;;;;;;5031570;28;20455;-70
2021/05/09 08:56:14;;;;;;;4.57;2.80;;;31.20;59.70;;;;;;5024664;28;20471;-70
2021/05/09 08:58:41;;;;;;;2.53;2.17;;;31.30;60.00;;;;;;5028136;28;20530;-69
2021/05/09 09:01:08;;;;;;;2.87;1.90;;;31.10;60.50;;;;;;5031027;28;20486;-69
2021/05/09 09:03:39;;;;;;;2.63;1.83;;;31.30;60.00;;;;;;5035143;28;20443;-73
2021/05/09 09:06:11;;;;;;;4.27;1.90;;;31.10;58.90;;;;;;5027084;28;20978;-70
2021/05/09 09:08:49;;;;;;;3.20;1.80;;;31.80;57.70;;;;;;5033672;28;20446;-69
2021/05/09 09:11:26;;;;;;;3.70;2.33;;;32.20;57.90;;;;;;5021133;28;20438;-70
2021/05/09 09:14:09;;;;;;;2.57;1.90;;;31.60;58.00;;;;;;5033231;28;20434;-70
2021/05/09 09:16:36;;;;;;;4.53;2.10;;;31.30;57.60;;;;;;5009876;28;20461;-71
2021/05/09 09:19:12;;;;;;;3.40;2.03;;;31.10;57.90;;;;;;5028674;28;20446;-77
2021/05/09 09:21:39;;;;;;;2.30;1.60;;;31.50;57.10;;;;;;5015791;28;20847;-70
2021/05/09 09:24:10;;;;;;;3.60;1.83;;;31.50;56.10;;;;;;5028698;28;20452;-69
2021/05/09 09:26:40;;;;;;;3.77;1.90;;;30.10;57.90;;;;;;5030917;28;20499;-72
2021/05/09 09:29:22;;;;;;;2.90;1.80;;;30.50;58.40;;;;;;5021351;28;20475;-70
2021/05/09 09:31:58;;;;;;;2.87;1.93;;;31.30;58.50;;;;;;5035132;28;20539;-73
2021/05/09 09:34:39;;;;;;;3.80;2.07;;;31.20;59.50;;;;;;5030173;28;20451;-71
2021/05/09 09:37:06;;;;;;;4.90;2.40;;;30.80;59.90;;;;;;5035719;28;20463;-70
2021/05/09 09:39:47;;;;;;;2.90;1.90;;;30.40;59.80;;;;;;5034680;28;20473;-69
2021/05/09 09:42:14;;;;;;;2.90;1.87;;;28.90;60.30;;;;;;5026665;28;20456;-75
2021/05/09 09:44:41;;;;;;;3.93;2.27;;;29.50;62.00;;;;;;5033541;28;20431;-72
2021/05/09 09:47:09;;;;;;;1.93;1.63;;;29.40;61.40;;;;;;5026566;28;20547;-72
2021/05/09 09:49:37;;;;;;;3.37;2.07;;;29.50;62.00;;;;;;5025291;28;20465;-70
2021/05/09 09:52:06;;;;;;;4.97;2.10;;;29.60;60.70;;;;;;5031309;28;20459;-73
2021/05/09 09:54:35;;;;;;;3.20;2.10;;;29.90;61.60;;;;;;5026287;28;20447;-79
2021/05/09 09:57:04;;;;;;;2.13;1.50;;;30.10;60.20;;;;;;5043163;28;20469;-74
2021/05/09 09:59:31;;;;;;;2.83;1.97;;;30.00;59.00;;;;;;5028788;28;20473;-70
2021/05/09 10:01:58;;;;;;;2.93;1.70;;;29.50;58.50;;;;;;5030448;28;20451;-70
2021/05/09 10:04:25;;;;;;;2.97;1.93;;;29.50;59.50;;;;;;5040034;28;20481;-68
2021/05/09 10:06:52;;;;;;;1.70;1.53;;;30.00;59.70;;;;;;5036137;28;20467;-68
2021/05/09 10:09:19;;;;;;;4.70;1.87;;;29.80;58.40;;;;;;5028340;28;20458;-71
2021/05/09 10:11:46;;;;;;;3.10;1.53;;;29.30;59.80;;;;;;5018440;28;20491;-72
2021/05/09 10:14:13;;;;;;;2.03;1.47;;;29.20;59.80;;;;;;5021065;28;20460;-70
2021/05/09 10:16:42;;;;;;;1.93;1.73;;;29.60;60.40;;;;;;5032869;28;20467;-70
2021/05/09 10:19:14;;;;;;;2.80;2.00;;;29.90;59.60;;;;;;5016331;28;20455;-70
2021/05/09 10:21:42;;;;;;;3.90;1.70;;;30.00;57.70;;;;;;5029212;28;20802;-70
2021/05/09 10:24:11;;;;;;;2.60;1.53;;;29.50;58.90;;;;;;5028116;28;20500;-68
2021/05/09 10:26:50;;;;;;;3.10;2.00;;;29.40;58.90;;;;;;5018292;28;20482;-69
2021/05/09 10:29:48;;;;;;;2.63;1.63;;;29.40;59.00;;;;;;5016734;28;20925;-68
2021/05/09 10:32:50;;;;;;;3.63;2.00;;;29.70;58.40;;;;;;5022016;28;20466;-69
2021/05/09 10:35:18;;;;;;;4.47;2.37;;;29.40;58.90;;;;;;5020813;28;20518;-71
2021/05/09 10:38:07;;;;;;;1.83;1.60;;;28.60;60.30;;;;;;5025941;28;20448;-69
2021/05/09 10:40:37;;;;;;;3.73;2.17;;;28.10;62.20;;;;;;5029860;28;20439;-70
2021/05/09 10:43:40;;;;;;;5.77;1.80;;;28.10;62.40;;;;;;5024804;28;20534;-70
2021/05/09 10:46:08;;;;;;;3.20;1.80;;;27.90;61.70;;;;;;5021730;28;20520;-69
2021/05/09 10:48:36;;;;;;;4.00;2.27;;;27.70;61.40;;;;;;5031265;28;20957;-70
2021/05/09 10:51:30;;;;;;;3.77;2.07;;;27.00;62.20;;;;;;5025424;28;20471;-69
2021/05/09 10:54:13;;;;;;;2.47;1.87;;;27.00;61.60;;;;;;5030341;28;20542;-68
2021/05/09 10:56:41;;;;;;;1.93;1.67;;;26.60;60.60;;;;;;5032107;28;20459;-70
2021/05/09 10:59:08;;;;;;;1.97;1.77;;;26.70;62.50;;;;;;5032664;28;20767;-72
2021/05/09 11:01:36;;;;;;;2.60;1.70;;;26.60;62.50;;;;;;5034387;28;20450;-70
2021/05/09 11:04:05;;;;;;;4.37;1.77;;;26.40;64.10;;;;;;5032818;28;20443;-68
2021/05/09 11:06:40;;;;;;;2.87;1.63;;;26.60;64.10;;;;;;5030650;28;20459;-69
2021/05/09 11:09:08;;;;;;;2.70;2.40;;;26.70;63.60;;;;;;5031697;28;20473;-69
2021/05/09 11:12:07;;;;;;;1.60;1.43;;;26.70;62.20;;;;;;5030426;28;20498;-69
2021/05/09 11:14:40;;;;;;;2.10;1.90;;;26.60;62.80;;;;;;5028175;28;20447;-70
2021/05/09 11:17:16;;;;;;;2.10;1.90;;;26.50;62.50;;;;;;5033781;28;20473;-69
2021/05/09 11:19:52;;;;;;;4.53;1.70;;;26.70;61.10;;;;;;5023853;28;20446;-68
2021/05/09 11:22:24;;;;;;;2.30;1.43;;;26.60;60.60;;;;;;5034702;28;20451;-69
2021/05/09 11:24:59;;;;;;;1.67;1.20;;;26.50;60.70;;;;;;5028661;28;20866;-68
2021/05/09 11:27:29;;;;;;;2.10;1.40;;;26.50;60.90;;;;;;5029509;28;20549;-69
2021/05/09 11:29:56;;;;;;;3.83;1.70;;;26.40;61.40;;;;;;5023906;28;20509;-69
2021/05/09 11:32:24;;;;;;;2.77;1.93;;;26.50;64.30;;;;;;5025881;28;20451;-69
2021/05/09 11:34:53;;;;;;;2.33;1.70;;;26.40;65.40;;;;;;5028641;28;20462;-69
2021/05/09 11:37:23;;;;;;;3.67;1.70;;;26.30;64.90;;;;;;5028565;28;20938;-70
2021/05/09 11:39:50;;;;;;;2.70;1.87;;;26.30;65.60;;;;;;5035710;28;20444;-70
2021/05/09 11:42:18;;;;;;;3.43;2.40;;;26.40;65.50;;;;;;5020971;28;20455;-69
2021/05/09 11:44:50;;;;;;;3.20;1.60;;;26.40;63.80;;;;;;5035376;28;20468;-69
2021/05/09 11:47:20;;;;;;;3.13;1.63;;;26.50;62.60;;;;;;5032919;28;20466;-68
2021/05/09 11:49:48;;;;;;;1.80;1.60;;;26.40;60.50;;;;;;5026728;28;20996;-68
2021/05/09 11:52:18;;;;;;;2.60;1.30;;;26.50;60.00;;;;;;5033447;28;20465;-68
2021/05/09 11:54:46;;;;;;;3.43;1.70;;;26.60;60.90;;;;;;5033233;28;20583;-68
2021/05/09 11:57:14;;;;;;;2.43;1.83;;;26.50;63.00;;;;;;5034049;28;20481;-68
2021/05/09 11:59:42;;;;;;;1.73;1.60;;;26.60;64.40;;;;;;5030800;28;20446;-70
2021/05/09 12:02:24;;;;;;;2.60;1.50;;;26.60;64.70;;;;;;5031130;28;20578;-69
2021/05/09 12:04:57;;;;;;;3.80;1.97;;;26.70;65.80;;;;;;5022394;28;20452;-69
2021/05/09 12:07:25;;;;;;;7.43;3.00;;;26.70;65.90;;;;;;5030227;28;20439;-68
2021/05/09 12:09:57;;;;;;;4.70;1.40;;;26.50;64.10;;;;;;5032427;28;20549;-69
2021/05/09 12:12:24;;;;;;;2.70;1.50;;;26.60;64.50;;;;;;5033116;28;20462;-68
2021/05/09 12:14:54;;;;;;;1.30;1.20;;;26.50;63.20;;;;;;5031730;28;20443;-68
2021/05/09 12:17:30;;;;;;;3.33;2.00;;;26.70;63.10;;;;;;5029653;28;20449;-69
2021/05/09 12:19:57;;;;;;;2.37;1.93;;;26.80;63.10;;;;;;5031288;28;20442;-70
2021/05/09 12:22:24;;;;;;;1.50;1.40;;;26.90;62.40;;;;;;5031363;28;20439;-68
2021/05/09 12:24:56;;;;;;;2.93;1.20;;;26.90;62.20;;;;;;5025730;28;20922;-68
2021/05/09 12:27:24;;;;;;;2.00;1.30;;;26.90;60.60;;;;;;5030355;28;20554;-68
2021/05/09 12:29:53;;;;;;;2.10;1.50;;;27.10;59.30;;;;;;5033390;28;20450;-69
2021/05/09 12:32:25;;;;;;;1.37;1.17;;;27.30;59.40;;;;;;5033211;28;20436;-69
2021/05/09 12:35:13;;;;;;;3.40;1.57;;;27.30;58.50;;;;;;5023709;28;20452;-69
2021/05/09 12:38:01;;;;;;;3.60;2.00;;;27.30;57.40;;;;;;5033976;28;20474;-69
2021/05/09 12:40:31;;;;;;;1.97;1.20;;;27.20;58.10;;;;;;5027517;28;20803;-72
2021/05/09 12:43:03;;;;;;;3.53;2.03;;;27.30;58.80;;;;;;5023728;28;20443;-70
2021/05/09 12:45:36;;;;;;;1.70;1.43;;;27.30;59.10;;;;;;5030267;28;20463;-69
2021/05/09 12:48:08;;;;;;;4.10;1.90;;;27.40;58.60;;;;;;5023500;28;20957;-69
2021/05/09 12:50:56;;;;;;;1.73;1.30;;;27.40;58.50;;;;;;5025531;28;20538;-69
2021/05/09 12:53:50;;;;;;;1.90;1.30;;;27.30;58.50;;;;;;5036691;28;20461;-69
2021/05/09 12:56:24;;;;;;;3.07;1.23;;;27.60;58.50;;;;;;4982088;28;20511;-70
2021/05/09 12:59:08;;;;;;;1.87;1.23;;;27.70;57.80;;;;;;5025432;28;20798;-69
2021/05/09 13:01:37;;;;;;;1.90;1.43;;;27.80;58.20;;;;;;5007766;28;20451;-69